Strona główna
METAR-TAF:

METAR-TAF

Lotnisko :

Franklin, Pensylwania, Stany Zjednoczone

Szerokość geograficzna: 41-23N, Długość geograficzna: 079-52W, wysokość: 469 m

Aktualna obserwacja pogody

Raport powstał 58 minut temu, godzina 10:56 UTC
Wiatr 6 kt od zachodnio-południowy zachód
Temperatura 19°C
Wilgotność 94%
Ciśnienie 1012 hPa
Widzialność: 16.1 km
Zachmurzenie całkowite na wysokości 1100 ft

METAR: KFKL 251056Z AUTO 25006KT 10SM OVC011 19/18 A2987 RMK AO2 CIG 008V013 SLP104 T01890178

czas: 07:54 (11:54 UTC)

Prognoza

Raport powstał 27 minut temu, godzina 11:27 UTC
Prognoza ważna od 25 godzina 12 UTC do 26 godzina 12 UTC
Wiatr 8 kt od zachód
Widzialność: 10 km
Przerywane chmury na wysokości 1500 ft
Od 25 godzina 1400 UTC
Wiatr 12 kt od zachód w porywach dochodzący do 20 kt
Widzialność: 10 km
Przerywane chmury na wysokości 3500 ft
Od 26 godzina 0000 UTC
Wiatr 5 kt z kierunków zmiennych
Widzialność: 10 km
bezchmurnie

TAF: KFKL 251127Z 2512/2612 26008KT P6SM BKN015 FM251400 26012G20KT P6SM BKN035 FM260000 VRB05KT P6SM SKC

Obserwacja i prognoza pogody dla ponad 4000 lotnisk (raport METAR i TAF).

Dostępne stacje oznaczono żółtymi i czerwonymi punktami na mapie.

Najedź kursorem aby zobaczyć nazwę stacji.

Kliknij aby zobaczyć obserwacje i prognozy pogody.

Aby zmienić mapę: kliknij na zielony przycisk z czarnym krzyżykiem, aby powiększyć; na zielony przycisk z myślnikiem, aby pomniejszyć; na zielone strzałki, aby przejść do map sąsiednich.


METAR-TAF: